Airfield :







YOU CAN JOIN US ON...

 
LOGIN :

Register | Disclaimer

   EN    FR    IT 

 









Legend :    VFR   Marginal VFR   IFR   Intensive IFR   Very Intensive IFR
Visi :
Ceiling :
>= 8 km
>= 3000ft
5 to 8 km
1000 to 3000 ft
1500m to 5 km
500 to 1000 ft
800 to 1500m
200 to 500 ft
< 800m
< 200 ft
Symbols :   Thunderstorms  Fog  Heavy snow  Heavy precipitations  Wind > 20 kt






- Airport Elevation : 352 ft


KAUG - Augusta State

CURRENT METAR :
  • 030053Z AUTO 28013G19KT 10SM CLR M11/M22 A2979 RMK AO2 SLP096 T11061217

EXPIRED METARs :
  • 022353Z AUTO VRB06KT 10SM CLR M11/M22 A2977 RMK AO2 SLP088 T11061217 11078 21111 51024
  • 022253Z AUTO 29009G14KT 270V330 10SM CLR M10/M21 A2976 RMK AO2 PK WND 28037/2215 PRESRR SLP086 T11001211

TAF KAUG
Valid from the 03 at 00:00 until the 04 at 00:00 UTC


022332Z 0300/0324 30010G20KT P6SM SKC
FM030500 27007KT P6SM FEW200 WS020/31035KT
FM031600 29010KT P6SM SCT050
KZBW FIR / North America



MET'MAP, your aeronautical weather chart ! - Copyright ORBIFLY December 2007 - Disclaimer

ORBIFLY MET'MAP TEAM :

Programming & Development : Alexandra Zaïnal
Concept & original design : Baudouin d'Aumeries
Assistance for programming : Marc-Olivier Méhu
Technical & hardware support : Manuel Goepfert

Contact : metmap@orbifly.com




SOURCES & CREDITS :

   NOAA